Time;durP1;ratioP1;P1;durP2;ratioP2;P2;SDS_P1;SDS_P2;PMS_P1;PMS_P2;Temp;Humidity;BMP_temperature;BMP_pressure;BME280_temperature;BME280_humidity;BME280_pressure;Samples;Min_cycle;Max_cycle;Signal;HPM_P1;HPM_P2
2023/02/15 00:00:24;;;;;;;34.57;9.50;;;;;;;1.85;100.00;97650.38;5056794;28;21181;-68
2023/02/15 00:02:50;;;;;;;24.57;8.40;;;;;;;1.71;100.00;97653.91;5059095;28;20224;-68
2023/02/15 00:05:18;;;;;;;27.93;8.20;;;;;;;1.87;100.00;97638.16;5057514;28;20216;-69
2023/02/15 00:07:44;;;;;;;20.30;7.70;;;;;;;1.84;100.00;97637.50;5057581;28;20217;-68
2023/02/15 00:10:11;;;;;;;30.33;8.50;;;;;;;1.80;100.00;97636.81;5057768;28;20206;-68
2023/02/15 00:12:38;;;;;;;26.83;8.60;;;;;;;1.85;100.00;97626.19;5058666;28;20316;-68
2023/02/15 00:15:05;;;;;;;40.53;9.00;;;;;;;1.93;100.00;97621.34;5056893;28;20208;-68
2023/02/15 00:17:31;;;;;;;31.17;8.47;;;;;;;1.94;100.00;97620.44;5057845;28;20215;-68
2023/02/15 00:19:58;;;;;;;34.30;8.93;;;;;;;1.99;100.00;97619.22;5057655;28;20221;-68
2023/02/15 00:22:26;;;;;;;47.20;8.70;;;;;;;2.00;100.00;97620.91;5057396;28;20230;-68
2023/02/15 00:24:52;;;;;;;19.80;8.87;;;;;;;2.00;100.00;97617.47;5056497;28;20216;-68
2023/02/15 00:27:19;;;;;;;29.57;8.40;;;;;;;2.03;100.00;97618.09;5058084;28;20209;-68
2023/02/15 00:29:47;;;;;;;30.90;9.30;;;;;;;2.01;100.00;97629.53;5057582;28;20201;-68
2023/02/15 00:32:13;;;;;;;37.77;8.03;;;;;;;1.99;100.00;97624.41;5057203;28;20319;-68
2023/02/15 00:34:40;;;;;;;24.33;8.00;;;;;;;1.92;100.00;97623.13;5057266;28;20209;-68
2023/02/15 00:37:06;;;;;;;23.43;7.87;;;;;;;1.87;100.00;97627.75;5057484;28;20218;-68
2023/02/15 00:39:34;;;;;;;29.03;9.10;;;;;;;1.92;100.00;97619.66;5056549;28;20234;-68
2023/02/15 00:42:00;;;;;;;30.80;8.63;;;;;;;1.90;100.00;97622.38;5057244;28;20234;-68
2023/02/15 00:44:27;;;;;;;23.40;8.53;;;;;;;1.87;100.00;97624.31;5060058;28;20208;-68
2023/02/15 00:46:53;;;;;;;17.80;7.40;;;;;;;1.96;100.00;97623.75;5057660;28;20206;-68
2023/02/15 00:49:20;;;;;;;18.40;7.53;;;;;;;1.92;100.00;97624.88;5057271;28;20202;-68
2023/02/15 00:51:46;;;;;;;21.20;8.20;;;;;;;1.83;100.00;97618.47;5057391;28;20221;-68
2023/02/15 00:54:13;;;;;;;29.87;7.87;;;;;;;1.75;100.00;97616.41;5056233;28;20210;-68
2023/02/15 00:56:41;;;;;;;39.30;7.73;;;;;;;1.58;100.00;97608.75;5055756;28;20211;-68
2023/02/15 00:59:09;;;;;;;32.53;7.83;;;;;;;1.65;100.00;97610.91;5057012;28;20205;-68
2023/02/15 01:01:36;;;;;;;32.50;8.17;;;;;;;1.53;100.00;97618.63;5057218;28;20362;-68
2023/02/15 01:04:02;;;;;;;42.53;7.70;;;;;;;1.34;100.00;97626.63;5056663;28;20205;-68
2023/02/15 01:06:28;;;;;;;24.80;7.13;;;;;;;1.23;100.00;97631.59;5056460;28;20197;-68
2023/02/15 01:08:55;;;;;;;21.23;7.90;;;;;;;1.45;100.00;97616.47;5057143;28;20215;-68
2023/02/15 01:11:23;;;;;;;19.87;7.27;;;;;;;1.57;100.00;97609.72;5057600;28;20232;-68
2023/02/15 01:13:52;;;;;;;22.20;8.30;;;;;;;1.61;100.00;97611.19;5055919;28;20192;-68
2023/02/15 01:16:19;;;;;;;37.00;8.50;;;;;;;1.58;100.00;97604.41;5056345;28;20202;-68
2023/02/15 01:18:45;;;;;;;31.20;7.77;;;;;;;1.40;100.00;97608.09;5057262;28;20201;-67
2023/02/15 01:21:14;;;;;;;27.17;7.10;;;;;;;1.43;100.00;97607.91;5056730;28;20242;-68
2023/02/15 01:23:41;;;;;;;17.77;7.27;;;;;;;1.50;100.00;97601.44;5055639;28;20298;-68
2023/02/15 01:26:08;;;;;;;23.80;7.17;;;;;;;1.45;100.00;97594.81;5056850;28;20228;-68
2023/02/15 01:28:34;;;;;;;51.43;7.47;;;;;;;1.44;100.00;97596.59;5057073;28;20200;-68
2023/02/15 01:31:07;;;;;;;16.57;6.17;;;;;;;1.19;100.00;97605.06;5056552;28;20196;-69
2023/02/15 01:33:35;;;;;;;15.97;7.33;;;;;;;1.34;100.00;97598.03;5056285;28;20740;-69
2023/02/15 01:36:02;;;;;;;23.90;7.80;;;;;;;1.36;100.00;97601.41;5056168;28;20668;-69
2023/02/15 01:38:28;;;;;;;36.17;7.50;;;;;;;1.32;100.00;97607.69;5056384;28;20196;-69
2023/02/15 01:41:19;;;;;;;21.97;7.30;;;;;;;1.48;100.00;97598.09;5056164;28;20224;-68
2023/02/15 01:43:43;;;;;;;17.53;7.33;;;;;;;1.52;100.00;97593.56;5055763;28;20696;-69
2023/02/15 01:46:13;;;;;;;22.83;7.63;;;;;;;1.67;100.00;97592.63;5056389;28;20701;-69
2023/02/15 01:48:45;;;;;;;17.57;6.97;;;;;;;1.61;100.00;97591.25;5056262;28;20687;-69
2023/02/15 01:51:12;;;;;;;17.87;8.07;;;;;;;1.25;100.00;97593.38;5056829;28;20279;-69
2023/02/15 01:53:44;;;;;;;17.00;7.07;;;;;;;1.51;100.00;97584.91;5055600;28;20231;-69
2023/02/15 01:56:15;;;;;;;16.93;8.00;;;;;;;1.60;100.00;97583.53;5056082;28;20204;-69
2023/02/15 01:58:43;;;;;;;17.27;7.57;;;;;;;1.53;100.00;97582.25;5056793;28;20205;-69
2023/02/15 02:01:10;;;;;;;27.70;7.57;;;;;;;1.58;100.00;97578.44;5056020;28;20239;-69
2023/02/15 02:03:47;;;;;;;27.00;7.60;;;;;;;1.63;100.00;97571.22;5055776;28;20205;-69
2023/02/15 02:06:14;;;;;;;19.13;7.57;;;;;;;1.58;100.00;97578.44;5056587;28;20218;-69
2023/02/15 02:08:42;;;;;;;28.83;7.83;;;;;;;1.58;100.00;97572.38;5056122;28;20208;-69
2023/02/15 02:11:11;;;;;;;26.07;7.13;;;;;;;1.71;100.00;97568.16;5055771;28;20244;-69
2023/02/15 02:13:38;;;;;;;18.63;7.20;;;;;;;1.70;100.00;97563.91;5055296;28;20724;-69
2023/02/15 02:16:14;;;;;;;23.30;8.27;;;;;;;1.85;100.00;97564.63;5056449;28;20204;-69
2023/02/15 02:18:54;;;;;;;24.77;7.50;;;;;;;1.86;100.00;97555.09;5056429;28;20208;-69
2023/02/15 02:21:47;;;;;;;27.73;8.20;;;;;;;1.71;100.00;97562.97;5056482;28;20229;-69
2023/02/15 02:24:42;;;;;;;39.10;7.87;;;;;;;1.53;100.00;97566.66;5058095;28;20204;-69
2023/02/15 02:27:29;;;;;;;18.57;7.23;;;;;;;1.58;100.00;97565.47;5060077;28;20905;-69
2023/02/15 02:30:35;;;;;;;18.13;6.77;;;;;;;1.56;100.00;97569.88;5061037;28;20889;-69
2023/02/15 02:33:33;;;;;;;26.97;8.10;;;;;;;1.54;100.00;97570.91;5059512;28;20223;-69
2023/02/15 02:36:09;;;;;;;31.20;7.57;;;;;;;1.48;100.00;97566.91;5058911;28;20205;-69
2023/02/15 02:38:47;;;;;;;20.30;7.20;;;;;;;1.47;100.00;97570.44;5059859;28;20200;-69
2023/02/15 02:41:21;;;;;;;15.70;6.80;;;;;;;1.59;100.00;97577.53;5059438;28;20675;-69
2023/02/15 02:43:54;;;;;;;22.37;7.57;;;;;;;1.66;100.00;97570.19;5059284;28;20208;-69
2023/02/15 02:46:25;;;;;;;15.57;7.27;;;;;;;1.52;100.00;97570.19;5059989;28;20205;-69
2023/02/15 02:48:53;;;;;;;22.53;8.17;;;;;;;1.65;100.00;97561.56;5059211;28;20215;-69
2023/02/15 02:51:21;;;;;;;28.03;7.67;;;;;;;1.65;100.00;97564.16;5059601;28;20220;-69
2023/02/15 02:53:52;;;;;;;17.30;7.87;;;;;;;1.60;100.00;97565.34;5059084;28;20201;-69
2023/02/15 02:56:25;;;;;;;17.13;7.47;;;;;;;1.66;100.00;97560.63;5059195;28;20875;-69
2023/02/15 02:58:57;;;;;;;18.17;7.73;;;;;;;1.47;100.00;97557.44;5058887;28;20278;-69
2023/02/15 03:01:28;;;;;;;17.73;7.37;;;;;;;1.64;100.00;97557.28;5059209;28;20713;-69
2023/02/15 03:04:00;;;;;;;18.27;7.27;;;;;;;1.71;100.00;97552.59;5058308;28;20235;-69
2023/02/15 03:06:33;;;;;;;15.97;7.40;;;;;;;1.60;100.00;97549.78;5058542;28;20228;-69
2023/02/15 03:09:07;;;;;;;23.57;7.40;;;;;;;1.36;100.00;97544.28;5059417;28;20209;-69
2023/02/15 03:11:34;;;;;;;21.30;7.37;;;;;;;1.20;100.00;97548.69;5059152;28;20216;-69
2023/02/15 03:14:00;;;;;;;19.90;6.60;;;;;;;1.17;100.00;97544.59;5058322;28;20201;-69
2023/02/15 03:16:28;;;;;;;16.07;6.63;;;;;;;1.09;100.00;97546.81;5058881;28;20200;-69
2023/02/15 03:19:01;;;;;;;22.30;6.80;;;;;;;1.09;100.00;97542.44;5059145;28;20204;-69
2023/02/15 03:21:33;;;;;;;24.83;7.33;;;;;;;1.10;100.00;97544.13;5056498;28;20221;-69
2023/02/15 03:24:05;;;;;;;16.23;6.67;;;;;;;0.89;100.00;97555.72;5058676;28;20242;-69
2023/02/15 03:26:33;;;;;;;23.00;6.80;;;;;;;1.06;100.00;97542.63;5058839;28;20224;-69
2023/02/15 03:29:03;;;;;;;17.43;7.07;;;;;;;1.12;100.00;97541.44;5058926;28;20211;-69
2023/02/15 03:31:33;;;;;;;14.60;6.23;;;;;;;1.22;100.00;97544.25;5059438;28;20220;-69
2023/02/15 03:34:04;;;;;;;14.83;6.87;;;;;;;1.15;100.00;97538.66;5056961;28;20211;-68
2023/02/15 03:36:40;;;;;;;18.37;5.80;;;;;;;1.12;100.00;97541.44;5058528;28;20201;-68
2023/02/15 03:39:16;;;;;;;17.10;6.27;;;;;;;0.89;100.00;97541.91;5059120;28;20204;-68
2023/02/15 03:41:50;;;;;;;19.60;6.97;;;;;;;0.94;100.00;97539.88;5059332;28;20250;-68
2023/02/15 03:44:24;;;;;;;19.00;6.97;;;;;;;1.14;100.00;97544.78;5057886;28;20205;-68
2023/02/15 03:46:57;;;;;;;20.33;6.20;;;;;;;1.26;100.00;97545.72;5057691;28;20323;-68
2023/02/15 03:49:30;;;;;;;17.60;6.43;;;;;;;1.36;100.00;97551.22;5059006;28;20961;-68
2023/02/15 03:52:00;;;;;;;18.27;7.30;;;;;;;1.31;100.00;97554.09;5058514;28;20227;-68
2023/02/15 03:54:45;;;;;;;29.13;7.70;;;;;;;1.05;100.00;97561.72;5057482;28;20204;-68
2023/02/15 04:02:57;;;;;;;8.27;3.90;;;;;;;0.94;100.00;97558.06;5058213;28;20286;-68
2023/02/15 04:05:25;;;;;;;19.40;6.77;;;;;;;1.03;100.00;97562.72;5057161;28;20201;-68
2023/02/15 04:07:51;;;;;;;22.73;6.93;;;;;;;0.97;100.00;97563.06;5058225;28;20215;-68
2023/02/15 04:13:02;;;;;;;18.60;6.40;;;;;;;0.38;100.00;97570.78;5057986;28;20261;-68
2023/02/15 04:18:13;;;;;;;53.93;16.20;;;;;;;0.53;100.00;97574.28;5057888;28;20266;-68
2023/02/15 04:26:12;;;;;;;16.53;5.90;;;;;;;0.33;100.00;97566.72;5057496;28;20250;-68
2023/02/15 04:28:39;;;;;;;15.03;6.50;;;;;;;0.25;100.00;97567.13;5058370;28;20583;-69
2023/02/15 04:31:05;;;;;;;27.63;6.50;;;;;;;0.22;100.00;97567.31;5057356;28;20207;-69
2023/02/15 04:33:31;;;;;;;24.47;7.23;;;;;;;0.45;100.00;97564.31;5057379;28;20215;-68
2023/02/15 04:35:59;;;;;;;19.50;6.27;;;;;;;0.59;100.00;97556.63;5057365;28;20216;-68
2023/02/15 04:38:26;;;;;;;21.80;6.67;;;;;;;0.65;100.00;97556.28;5057346;28;20555;-68
2023/02/15 04:40:53;;;;;;;14.17;6.20;;;;;;;0.68;100.00;97559.50;5057141;28;20416;-68
2023/02/15 04:43:19;;;;;;;12.00;5.70;;;;;;;0.84;100.00;97551.72;5058091;28;20601;-68
2023/02/15 04:45:49;;;;;;;19.13;7.17;;;;;;;0.93;100.00;97551.19;5056271;28;20204;-69
2023/02/15 04:48:16;;;;;;;26.93;10.33;;;;;;;0.23;100.00;97547.41;5056710;28;20298;-69
2023/02/15 04:50:43;;;;;;;33.93;11.90;;;;;;;0.40;100.00;97550.75;5057370;28;20200;-68
2023/02/15 04:53:11;;;;;;;17.77;6.43;;;;;;;0.38;100.00;97546.59;5058113;28;20705;-68
2023/02/15 04:55:37;;;;;;;27.17;7.00;;;;;;;0.46;100.00;97547.84;5055765;28;20200;-68
2023/02/15 04:58:04;;;;;;;18.63;6.47;;;;;;;0.52;100.00;97544.88;5056587;28;20216;-68
2023/02/15 05:00:30;;;;;;;15.60;6.17;;;;;;;0.49;100.00;97546.84;5057663;28;20197;-68
2023/02/15 05:02:57;;;;;;;12.27;5.53;;;;;;;0.21;100.00;97546.66;5057080;28;20224;-68
2023/02/15 05:05:23;;;;;;;14.63;6.37;;;;;;;0.37;100.00;97544.91;5055954;28;20204;-68
2023/02/15 05:07:50;;;;;;;21.37;6.67;;;;;;;0.38;100.00;97539.66;5057263;28;20218;-68
2023/02/15 05:10:18;;;;;;;30.87;7.00;;;;;;;0.56;100.00;97541.22;5056969;28;20204;-68
2023/02/15 05:12:44;;;;;;;22.50;5.43;;;;;;;0.47;100.00;97546.06;5056261;28;20229;-68
2023/02/15 05:15:11;;;;;;;17.87;7.50;;;;;;;0.51;100.00;97552.75;5057113;28;20587;-68
2023/02/15 05:17:37;;;;;;;13.93;6.53;;;;;;;0.56;100.00;97543.81;5058282;28;20208;-68
2023/02/15 05:20:05;;;;;;;29.20;9.23;;;;;;;0.58;100.00;97541.16;5056469;28;20211;-68
2023/02/15 05:22:31;;;;;;;18.00;7.90;;;;;;;0.64;100.00;97536.44;5056845;28;20224;-68
2023/02/15 05:30:27;;;;;;;20.70;7.63;;;;;;;0.56;100.00;97541.22;5056859;28;20999;-68
2023/02/15 05:32:53;;;;;;;14.33;7.03;;;;;;;0.58;100.00;97542.78;5056481;28;20227;-68
2023/02/15 05:35:20;;;;;;;16.67;7.10;;;;;;;0.74;100.00;97542.78;5056102;28;20197;-68
2023/02/15 05:37:46;;;;;;;13.93;5.47;;;;;;;0.89;100.00;97544.50;5056590;28;20209;-68
2023/02/15 05:40:13;;;;;;;14.60;6.67;;;;;;;0.91;100.00;97537.47;5056650;28;20235;-69
2023/02/15 05:42:39;;;;;;;18.83;7.60;;;;;;;0.95;100.00;97544.16;5056489;28;20714;-68
2023/02/15 05:45:08;;;;;;;19.20;7.87;;;;;;;1.06;100.00;97533.97;5055683;28;20216;-68
2023/02/15 05:47:34;;;;;;;22.80;7.57;;;;;;;0.72;100.00;97536.84;5056654;28;20208;-68
2023/02/15 05:50:01;;;;;;;17.63;7.43;;;;;;;0.71;100.00;97542.94;5056299;28;20211;-68
2023/02/15 05:52:27;;;;;;;22.53;7.43;;;;;;;0.64;100.00;97542.47;5056614;28;20609;-68
2023/02/15 05:54:54;;;;;;;37.33;8.80;;;;;;;0.57;100.00;97535.09;5055739;28;20208;-68
2023/02/15 05:57:20;;;;;;;31.23;8.67;;;;;;;0.72;100.00;97536.84;5056437;28;20201;-68
2023/02/15 05:59:46;;;;;;;24.60;7.40;;;;;;;0.74;100.00;97540.19;5060309;28;20215;-68
2023/02/15 06:02:14;;;;;;;20.53;7.70;;;;;;;0.56;100.00;97546.41;5061000;28;20228;-68
2023/02/15 06:04:41;;;;;;;18.87;7.60;;;;;;;0.50;100.00;97549.34;5060169;28;20200;-68
2023/02/15 06:07:07;;;;;;;14.83;6.57;;;;;;;0.51;100.00;97553.63;5059829;28;20212;-68
2023/02/15 06:09:34;;;;;;;21.73;7.47;;;;;;;0.49;100.00;97550.25;5060355;28;20211;-68
2023/02/15 06:12:00;;;;;;;33.50;9.03;;;;;;;0.45;100.00;97564.31;5060497;28;20216;-68
2023/02/15 06:14:26;;;;;;;15.93;6.90;;;;;;;0.68;100.00;97556.09;5059091;28;20211;-68
2023/02/15 06:16:53;;;;;;;40.47;7.33;;;;;;;0.65;100.00;97558.88;5060575;28;20204;-68
2023/02/15 06:19:22;;;;;;;31.73;8.07;;;;;;;0.69;100.00;97560.38;5059827;28;20204;-68
2023/02/15 06:21:49;;;;;;;19.67;7.20;;;;;;;0.62;100.00;97561.63;5059844;28;20239;-69
2023/02/15 06:24:15;;;;;;;12.00;6.17;;;;;;;0.58;100.00;97569.66;5059136;28;20616;-69
2023/02/15 06:26:42;;;;;;;45.67;16.37;;;;;;;0.67;100.00;97564.78;5060326;28;20215;-69
2023/02/15 06:29:10;;;;;;;21.13;8.83;;;;;;;0.77;100.00;97571.97;5059476;28;20205;-69
2023/02/15 06:31:37;;;;;;;25.60;9.07;;;;;;;0.76;100.00;97565.13;5059644;28;20224;-69
2023/02/15 06:34:03;;;;;;;22.33;8.90;;;;;;;0.90;100.00;97566.94;5059205;28;20645;-68
2023/02/15 06:36:32;;;;;;;24.87;9.13;;;;;;;1.00;100.00;97568.09;5059715;28;20197;-69
2023/02/15 06:38:58;;;;;;;22.70;7.07;;;;;;;0.95;100.00;97565.75;5059654;28;20442;-69
2023/02/15 06:41:25;;;;;;;16.10;6.60;;;;;;;0.76;100.00;97569.47;5059677;28;20254;-68
2023/02/15 06:43:51;;;;;;;27.63;6.73;;;;;;;0.81;100.00;97577.84;5059138;28;20200;-69
2023/02/15 06:46:18;;;;;;;14.83;5.93;;;;;;;0.86;100.00;97576.63;5059426;28;20615;-69
2023/02/15 06:48:44;;;;;;;18.97;6.33;;;;;;;0.84;100.00;97582.84;5059984;28;20203;-69
2023/02/15 06:51:11;;;;;;;10.30;5.27;;;;;;;0.74;100.00;97581.69;5058635;28;20228;-69
2023/02/15 06:53:41;;;;;;;17.53;6.53;;;;;;;0.62;100.00;97582.38;5059106;28;20207;-69
2023/02/15 06:56:08;;;;;;;13.17;6.53;;;;;;;0.32;100.00;97578.00;5059094;28;20247;-69
2023/02/15 06:58:35;;;;;;;20.40;7.30;;;;;;;0.47;100.00;97579.78;5059860;28;20301;-69
2023/02/15 07:01:02;;;;;;;16.13;6.30;;;;;;;0.54;100.00;97574.19;5059007;28;20211;-69
2023/02/15 07:03:29;;;;;;;16.37;6.93;;;;;;;0.56;100.00;97571.50;5059273;28;20223;-69
2023/02/15 07:05:56;;;;;;;26.80;6.87;;;;;;;0.63;100.00;97573.66;5059235;28;20208;-69
2023/02/15 07:08:23;;;;;;;27.37;7.63;;;;;;;0.75;100.00;97570.38;5058756;28;20764;-69
2023/02/15 07:10:51;;;;;;;17.47;5.37;;;;;;;0.72;100.00;97565.38;5059381;28;20219;-69
2023/02/15 07:13:18;;;;;;;15.83;7.17;;;;;;;0.88;100.00;97566.16;5059269;28;20200;-69
2023/02/15 07:15:45;;;;;;;20.80;7.47;;;;;;;0.80;100.00;97568.38;5058595;28;20210;-69
2023/02/15 07:18:11;;;;;;;20.67;7.53;;;;;;;0.85;100.00;97571.53;5059538;28;20696;-69
2023/02/15 07:20:40;;;;;;;17.60;7.87;;;;;;;0.78;100.00;97567.63;5059442;28;20208;-69
2023/02/15 07:23:06;;;;;;;19.23;8.57;;;;;;;0.94;100.00;97571.88;5058391;28;20232;-69
2023/02/15 07:25:33;;;;;;;23.30;8.07;;;;;;;0.99;100.00;97572.44;5058010;28;20633;-69
2023/02/15 07:28:03;;;;;;;18.37;7.97;;;;;;;1.19;100.00;97565.16;5059296;28;20212;-69
2023/02/15 07:30:30;;;;;;;18.73;7.33;;;;;;;0.82;100.00;97576.91;5058585;28;20436;-69
2023/02/15 07:35:38;;;;;;;28.13;8.23;;;;;;;0.76;100.00;97572.06;5048955;28;20204;-69
2023/02/15 07:38:04;;;;;;;14.77;7.07;;;;;;;0.90;100.00;97577.31;5058795;28;20208;-69
2023/02/15 07:40:31;;;;;;;17.50;6.70;;;;;;;0.97;100.00;97570.84;5058751;28;20204;-69
2023/02/15 07:42:59;;;;;;;16.00;6.63;;;;;;;0.83;100.00;97573.41;5058723;28;20232;-69
2023/02/15 07:45:26;;;;;;;16.23;7.13;;;;;;;0.70;100.00;97567.22;5057918;28;20204;-69
2023/02/15 07:47:53;;;;;;;21.37;7.70;;;;;;;0.77;100.00;97571.16;5058425;28;20205;-69
2023/02/15 07:50:19;;;;;;;16.83;8.10;;;;;;;0.64;100.00;97570.97;5058574;28;21126;-69
2023/02/15 07:52:46;;;;;;;18.00;7.07;;;;;;;0.52;100.00;97573.41;5058533;28;20224;-69
2023/02/15 07:55:12;;;;;;;18.07;7.90;;;;;;;0.61;100.00;97572.91;5057215;28;20204;-69
2023/02/15 07:57:42;;;;;;;25.00;7.73;;;;;;;0.77;100.00;97576.34;5058732;28;20215;-68
2023/02/15 08:00:11;;;;;;;28.63;9.03;;;;;;;0.72;100.00;97588.72;5058340;28;20204;-69
2023/02/15 08:02:39;;;;;;;25.47;8.80;;;;;;;0.95;100.00;97575.28;5058153;28;20258;-68
2023/02/15 08:05:06;;;;;;;28.60;7.13;;;;;;;0.72;100.00;97570.56;5057539;28;20224;-69
2023/02/15 08:07:32;;;;;;;24.87;7.67;;;;;;;0.84;100.00;97575.06;5057626;28;20681;-69
2023/02/15 08:10:00;;;;;;;19.97;7.80;;;;;;;0.83;100.00;97568.22;5058324;28;20211;-69
2023/02/15 08:12:26;;;;;;;18.53;7.90;;;;;;;0.91;100.00;97573.81;5058171;28;20248;-69
2023/02/15 08:14:53;;;;;;;30.67;7.87;;;;;;;0.88;100.00;97576.56;5057027;28;20215;-69
2023/02/15 08:17:19;;;;;;;24.20;7.70;;;;;;;0.73;100.00;97570.47;5057886;28;20211;-69
2023/02/15 08:19:47;;;;;;;30.73;7.80;;;;;;;0.97;100.00;97568.25;5058352;28;20204;-69
2023/02/15 08:22:15;;;;;;;23.60;8.40;;;;;;;1.04;100.00;97560.03;5057222;28;20224;-69
2023/02/15 08:24:41;;;;;;;23.10;7.93;;;;;;;1.07;100.00;97559.88;5056912;28;20204;-69
2023/02/15 08:27:10;;;;;;;21.73;8.07;;;;;;;1.33;100.00;97552.22;5057869;28;20212;-69
2023/02/15 08:29:38;;;;;;;32.00;8.73;;;;;;;1.38;100.00;97560.59;5058791;28;20213;-67
2023/02/15 08:32:07;;;;;;;28.00;9.43;;;;;;;1.04;100.00;97560.03;5056655;28;20224;-68
2023/02/15 08:34:36;;;;;;;33.70;7.83;;;;;;;1.29;100.00;97555.94;5056369;28;20665;-68
2023/02/15 08:37:05;;;;;;;26.20;9.20;;;;;;;1.47;100.00;97547.06;5057621;28;20200;-68
2023/02/15 08:39:32;;;;;;;22.80;9.00;;;;;;;1.44;100.00;97544.66;5057549;28;20258;-69
2023/02/15 08:41:59;;;;;;;24.63;9.23;;;;;;;1.57;100.00;97540.41;5057278;28;20227;-69
2023/02/15 08:44:25;;;;;;;22.00;8.30;;;;;;;1.55;100.00;97537.03;5056364;28;20205;-69
2023/02/15 08:46:52;;;;;;;37.07;9.27;;;;;;;1.72;100.00;97539.50;5057616;28;20399;-69
2023/02/15 08:49:20;;;;;;;23.73;9.50;;;;;;;1.68;100.00;97532.81;5057310;28;20215;-69
2023/02/15 08:51:48;;;;;;;27.03;9.57;;;;;;;1.77;100.00;97534.84;5057429;28;20226;-69
2023/02/15 08:54:17;;;;;;;22.67;8.60;;;;;;;1.81;100.00;97536.34;5056552;28;20283;-69
2023/02/15 08:56:45;;;;;;;25.23;9.27;;;;;;;1.84;100.00;97538.75;5055398;28;20219;-69
2023/02/15 08:59:15;;;;;;;28.40;10.27;;;;;;;1.89;100.00;97529.72;5056609;28;20215;-69
2023/02/15 09:01:41;;;;;;;21.43;9.47;;;;;;;1.67;100.00;97531.13;5056673;28;20220;-69
2023/02/15 09:04:09;;;;;;;22.00;8.27;;;;;;;1.85;100.00;97527.41;5055237;28;20216;-70
2023/02/15 09:06:36;;;;;;;23.83;9.07;;;;;;;1.83;100.00;97530.13;5056030;28;20208;-69
2023/02/15 09:09:04;;;;;;;36.03;12.17;;;;;;;1.68;100.00;97532.81;5057280;28;20214;-69
2023/02/15 09:11:35;;;;;;;33.70;8.73;;;;;;;1.76;100.00;97535.78;5056626;28;20235;-69
2023/02/15 09:14:04;;;;;;;25.33;9.07;;;;;;;1.77;100.00;97532.25;5055564;28;20565;-69
2023/02/15 09:16:32;;;;;;;22.20;9.80;;;;;;;1.76;100.00;97537.53;5056978;28;20200;-69
2023/02/15 09:19:00;;;;;;;28.30;11.50;;;;;;;1.78;100.00;97538.28;5056758;28;20673;-69
2023/02/15 09:21:28;;;;;;;27.97;9.87;;;;;;;1.92;100.00;97539.09;5056509;28;20228;-69
2023/02/15 09:23:57;;;;;;;38.90;10.50;;;;;;;1.78;100.00;97543.47;5055231;28;20704;-70
2023/02/15 09:26:25;;;;;;;32.20;9.83;;;;;;;1.91;100.00;97545.25;5056536;28;20200;-69
2023/02/15 09:28:55;;;;;;;28.87;10.30;;;;;;;1.96;100.00;97544.03;5056785;28;20200;-69
2023/02/15 09:31:23;;;;;;;30.53;10.40;;;;;;;1.98;100.00;97542.16;5056008;28;20967;-69
2023/02/15 09:33:51;;;;;;;34.47;11.07;;;;;;;1.94;100.00;97539.84;5055592;28;20201;-69
2023/02/15 09:36:19;;;;;;;23.53;9.63;;;;;;;2.14;100.00;97536.84;5055236;28;20682;-68
2023/02/15 09:38:47;;;;;;;30.13;10.20;;;;;;;2.01;100.00;97541.13;5055286;28;20193;-68
2023/02/15 09:41:32;;;;;;;25.73;10.93;;;;;;;2.27;100.00;97541.22;5055568;28;20224;-68
2023/02/15 09:44:12;;;;;;;26.50;9.53;;;;;;;1.89;100.00;97540.13;5055746;28;20221;-68
2023/02/15 09:46:54;;;;;;;28.33;10.07;;;;;;;1.95;100.00;97533.75;5057322;28;20689;-68
2023/02/15 09:49:30;;;;;;;24.47;10.20;;;;;;;1.87;100.00;97539.41;5056669;28;20216;-68
2023/02/15 09:52:20;;;;;;;26.33;10.10;;;;;;;1.91;100.00;97537.47;5057106;28;20227;-68
2023/02/15 09:55:06;;;;;;;28.70;10.57;;;;;;;2.05;100.00;97537.41;5055535;28;20296;-69
2023/02/15 09:57:41;;;;;;;31.33;11.17;;;;;;;2.24;100.00;97533.59;5056901;28;20215;-68
2023/02/15 10:00:20;;;;;;;27.83;10.03;;;;;;;2.05;100.00;97538.28;5056004;28;20212;-68
2023/02/15 10:03:07;;;;;;;27.67;11.07;;;;;;;2.31;100.00;97529.69;5055479;28;20224;-68
2023/02/15 10:05:45;;;;;;;33.10;11.40;;;;;;;2.49;100.00;97537.16;5054623;28;20209;-69
2023/02/15 10:08:38;;;;;;;29.53;10.77;;;;;;;2.61;100.00;97530.34;5055431;28;20219;-69
2023/02/15 10:14:06;;;;;;;28.70;10.73;;;;;;;2.62;100.00;97532.00;5053019;28;20279;-68
2023/02/15 10:16:44;;;;;;;24.83;9.83;;;;;;;2.75;100.00;97538.94;5055191;28;20207;-68
2023/02/15 10:19:20;;;;;;;30.97;10.70;;;;;;;2.76;100.00;97532.81;5054275;28;20205;-68
2023/02/15 10:21:59;;;;;;;32.47;12.13;;;;;;;2.80;100.00;97530.81;5054736;28;20238;-68
2023/02/15 10:24:46;;;;;;;30.23;11.50;;;;;;;2.97;100.00;97525.38;5053349;28;20221;-69
2023/02/15 10:27:16;;;;;;;29.37;10.97;;;;;;;2.72;100.00;97520.91;5054075;28;20240;-68
2023/02/15 10:29:51;;;;;;;29.03;11.03;;;;;;;3.00;100.00;97519.97;5053962;28;20567;-68
2023/02/15 10:32:24;;;;;;;24.57;10.33;;;;;;;2.91;100.00;97515.38;5054238;28;20229;-68
2023/02/15 10:34:55;;;;;;;29.23;10.53;;;;;;;3.01;100.00;97517.25;5053688;28;20225;-69
2023/02/15 10:37:47;;;;;;;26.63;10.03;;;;;;;3.07;100.00;97512.47;5054935;28;20206;-68
2023/02/15 10:40:23;;;;;;;29.07;10.43;;;;;;;2.99;100.00;97503.50;5054139;28;20210;-68
2023/02/15 10:43:06;;;;;;;29.30;12.13;;;;;;;3.16;100.00;97501.47;5053637;28;20238;-68
2023/02/15 10:45:47;;;;;;;31.33;11.33;;;;;;;3.49;100.00;97499.22;5057292;28;20809;-68
2023/02/15 10:48:30;;;;;;;30.63;11.77;;;;;;;3.38;100.00;97496.47;5057708;28;20257;-68
2023/02/15 10:50:58;;;;;;;35.13;11.13;;;;;;;3.28;100.00;97497.19;5058811;28;20222;-68
2023/02/15 10:53:46;;;;;;;39.50;12.50;;;;;;;3.25;100.00;97489.59;5058568;28;20659;-68
2023/02/15 10:56:20;;;;;;;33.40;11.43;;;;;;;3.49;100.00;97487.94;5057965;28;20203;-68
2023/02/15 10:59:01;;;;;;;23.40;10.40;;;;;;;2.89;100.00;97485.97;5058391;28;20653;-68
2023/02/15 11:01:35;;;;;;;34.80;12.87;;;;;;;3.35;100.00;97475.03;5058286;28;20233;-68
2023/02/15 11:04:41;;;;;;;37.07;13.10;;;;;;;3.34;100.00;97481.16;5055499;28;20255;-68
2023/02/15 11:07:16;;;;;;;32.37;11.60;;;;;;;3.74;100.00;97471.38;5053695;28;20235;-68
2023/02/15 11:09:49;;;;;;;35.43;13.90;;;;;;;3.96;100.00;97468.94;5058006;28;20211;-68
2023/02/15 11:12:20;;;;;;;37.03;13.00;;;;;;;4.13;100.00;97465.97;5056753;28;20243;-68
2023/02/15 11:14:53;;;;;;;37.27;12.50;;;;;;;3.91;100.00;97471.03;5056959;28;20215;-68
2023/02/15 11:17:24;;;;;;;30.90;11.97;;;;;;;4.21;100.00;97463.63;5057958;28;20218;-68
2023/02/15 11:20:01;;;;;;;32.33;12.37;;;;;;;4.38;100.00;97461.50;5057596;28;20204;-68
2023/02/15 11:22:27;;;;;;;28.37;11.20;;;;;;;4.28;100.00;97463.09;5056927;28;20704;-68
2023/02/15 11:24:57;;;;;;;36.90;12.80;;;;;;;3.95;100.00;97453.41;5057104;28;20204;-68
2023/02/15 11:27:28;;;;;;;33.70;11.83;;;;;;;4.26;100.00;97457.16;5057259;28;20204;-68
2023/02/15 11:30:00;;;;;;;32.13;12.10;;;;;;;4.42;100.00;97459.50;5056422;28;20746;-68
2023/02/15 11:32:29;;;;;;;39.33;14.10;;;;;;;4.62;100.00;97451.06;5057311;28;20216;-68
2023/02/15 11:35:04;;;;;;;34.17;12.90;;;;;;;4.50;100.00;97449.34;5056339;28;20231;-68
2023/02/15 11:37:37;;;;;;;34.80;11.70;;;;;;;4.85;100.00;97446.66;5054328;28;20203;-68
2023/02/15 11:40:18;;;;;;;35.80;12.97;;;;;;;4.91;100.00;97435.75;5056873;28;20201;-68
2023/02/15 11:42:46;;;;;;;35.27;13.07;;;;;;;4.82;100.00;97432.16;5056835;28;20220;-68
2023/02/15 11:45:22;;;;;;;38.47;12.30;;;;;;;4.88;100.00;97430.75;5056396;28;20294;-68
2023/02/15 11:47:49;;;;;;;32.10;12.20;;;;;;;4.71;100.00;97426.88;5056619;28;20219;-69
2023/02/15 11:50:22;;;;;;;30.33;12.13;;;;;;;5.03;100.00;97416.56;5056662;28;20200;-68
2023/02/15 11:52:49;;;;;;;31.70;12.63;;;;;;;5.35;100.00;97416.75;5056629;28;20228;-68
2023/02/15 11:55:25;;;;;;;34.10;13.00;;;;;;;5.76;100.00;97410.00;5055383;28;20201;-68
2023/02/15 11:57:56;;;;;;;36.73;12.57;;;;;;;5.91;96.97;97406.22;5056900;28;20289;-68
2023/02/15 12:00:35;;;;;;;32.80;12.93;;;;;;;5.58;99.00;97400.94;5056633;28;20236;-68
2023/02/15 12:03:09;;;;;;;34.77;12.73;;;;;;;5.31;100.00;97410.06;5056499;28;20228;-68
2023/02/15 12:05:40;;;;;;;32.70;12.70;;;;;;;5.39;100.00;97400.69;5055748;28;21032;-68